sensor_id;sensor_type;location;lat;lon;timestamp;P1;durP1;ratioP1;P2;durP2;ratioP2
10851;SDS011;5479;52.046;6.314;2024-02-23T00:00:38;2.00;;;1.30;;
10851;SDS011;5479;52.046;6.314;2024-02-23T00:03:05;3.30;;;1.70;;
10851;SDS011;5479;52.046;6.314;2024-02-23T00:05:37;2.63;;;1.50;;
10851;SDS011;5479;52.046;6.314;2024-02-23T00:08:04;2.90;;;1.43;;
10851;SDS011;5479;52.046;6.314;2024-02-23T00:10:32;2.80;;;1.43;;
10851;SDS011;5479;52.046;6.314;2024-02-23T00:13:00;1.93;;;1.00;;
10851;SDS011;5479;52.046;6.314;2024-02-23T00:15:28;1.27;;;0.90;;
10851;SDS011;5479;52.046;6.314;2024-02-23T00:17:56;3.00;;;1.40;;
10851;SDS011;5479;52.046;6.314;2024-02-23T00:20:24;2.27;;;1.07;;
10851;SDS011;5479;52.046;6.314;2024-02-23T00:22:53;3.40;;;1.40;;
10851;SDS011;5479;52.046;6.314;2024-02-23T00:25:22;2.80;;;1.50;;
10851;SDS011;5479;52.046;6.314;2024-02-23T00:27:50;3.37;;;1.30;;
10851;SDS011;5479;52.046;6.314;2024-02-23T00:30:18;2.77;;;1.37;;
10851;SDS011;5479;52.046;6.314;2024-02-23T00:32:46;3.50;;;1.40;;
10851;SDS011;5479;52.046;6.314;2024-02-23T00:35:13;5.67;;;1.23;;
10851;SDS011;5479;52.046;6.314;2024-02-23T00:37:41;4.37;;;1.30;;
10851;SDS011;5479;52.046;6.314;2024-02-23T00:40:11;3.90;;;1.50;;
10851;SDS011;5479;52.046;6.314;2024-02-23T00:42:39;4.67;;;2.03;;
10851;SDS011;5479;52.046;6.314;2024-02-23T00:45:07;2.57;;;1.33;;
10851;SDS011;5479;52.046;6.314;2024-02-23T00:47:35;3.43;;;1.70;;
10851;SDS011;5479;52.046;6.314;2024-02-23T00:50:03;2.83;;;1.33;;
10851;SDS011;5479;52.046;6.314;2024-02-23T00:52:31;3.00;;;1.60;;
10851;SDS011;5479;52.046;6.314;2024-02-23T00:54:59;5.13;;;1.97;;
10851;SDS011;5479;52.046;6.314;2024-02-23T00:57:29;4.33;;;1.90;;
10851;SDS011;5479;52.046;6.314;2024-02-23T00:59:57;3.87;;;2.20;;
10851;SDS011;5479;52.046;6.314;2024-02-23T01:02:24;5.47;;;2.07;;
10851;SDS011;5479;52.046;6.314;2024-02-23T01:04:52;4.20;;;2.10;;
10851;SDS011;5479;52.046;6.314;2024-02-23T01:07:23;5.10;;;2.30;;
10851;SDS011;5479;52.046;6.314;2024-02-23T01:09:52;5.17;;;2.20;;
10851;SDS011;5479;52.046;6.314;2024-02-23T01:12:20;6.00;;;2.27;;
10851;SDS011;5479;52.046;6.314;2024-02-23T01:14:51;5.70;;;2.37;;
10851;SDS011;5479;52.046;6.314;2024-02-23T01:17:21;3.07;;;1.80;;
10851;SDS011;5479;52.046;6.314;2024-02-23T01:19:49;2.63;;;1.50;;
10851;SDS011;5479;52.046;6.314;2024-02-23T01:22:19;2.70;;;1.00;;
10851;SDS011;5479;52.046;6.314;2024-02-23T01:24:48;2.33;;;0.77;;
10851;SDS011;5479;52.046;6.314;2024-02-23T01:27:16;1.07;;;0.77;;
10851;SDS011;5479;52.046;6.314;2024-02-23T01:29:44;5.43;;;1.70;;
10851;SDS011;5479;52.046;6.314;2024-02-23T01:32:14;2.37;;;1.13;;
10851;SDS011;5479;52.046;6.314;2024-02-23T01:34:41;4.90;;;1.50;;
10851;SDS011;5479;52.046;6.314;2024-02-23T01:37:09;3.90;;;1.63;;
10851;SDS011;5479;52.046;6.314;2024-02-23T01:39:38;4.53;;;2.60;;
10851;SDS011;5479;52.046;6.314;2024-02-23T01:42:05;5.70;;;2.50;;
10851;SDS011;5479;52.046;6.314;2024-02-23T01:44:33;7.00;;;3.95;;
10851;SDS011;5479;52.046;6.314;2024-02-23T01:47:01;6.43;;;4.00;;
10851;SDS011;5479;52.046;6.314;2024-02-23T01:49:30;9.93;;;5.60;;
10851;SDS011;5479;52.046;6.314;2024-02-23T01:52:00;7.07;;;4.80;;
10851;SDS011;5479;52.046;6.314;2024-02-23T01:54:29;9.47;;;5.60;;
10851;SDS011;5479;52.046;6.314;2024-02-23T01:56:58;8.93;;;5.30;;
10851;SDS011;5479;52.046;6.314;2024-02-23T01:59:26;8.77;;;4.80;;
10851;SDS011;5479;52.046;6.314;2024-02-23T02:01:56;10.20;;;4.83;;
10851;SDS011;5479;52.046;6.314;2024-02-23T02:04:25;9.53;;;4.83;;
10851;SDS011;5479;52.046;6.314;2024-02-23T02:06:54;7.80;;;4.00;;
10851;SDS011;5479;52.046;6.314;2024-02-23T02:09:23;7.43;;;3.77;;
10851;SDS011;5479;52.046;6.314;2024-02-23T02:11:50;5.80;;;3.50;;
10851;SDS011;5479;52.046;6.314;2024-02-23T02:14:18;6.00;;;2.93;;
10851;SDS011;5479;52.046;6.314;2024-02-23T02:16:46;7.57;;;3.40;;
10851;SDS011;5479;52.046;6.314;2024-02-23T02:19:14;8.60;;;3.40;;
10851;SDS011;5479;52.046;6.314;2024-02-23T02:21:42;4.50;;;2.30;;
10851;SDS011;5479;52.046;6.314;2024-02-23T02:24:11;7.40;;;2.80;;
10851;SDS011;5479;52.046;6.314;2024-02-23T02:26:39;8.90;;;2.47;;
10851;SDS011;5479;52.046;6.314;2024-02-23T02:29:06;5.43;;;2.03;;
10851;SDS011;5479;52.046;6.314;2024-02-23T02:31:34;5.77;;;2.00;;
10851;SDS011;5479;52.046;6.314;2024-02-23T02:34:03;6.20;;;2.57;;
10851;SDS011;5479;52.046;6.314;2024-02-23T02:36:31;6.93;;;2.00;;
10851;SDS011;5479;52.046;6.314;2024-02-23T02:38:59;6.03;;;1.80;;
10851;SDS011;5479;52.046;6.314;2024-02-23T02:41:28;5.67;;;1.87;;
10851;SDS011;5479;52.046;6.314;2024-02-23T02:43:56;7.90;;;2.27;;
10851;SDS011;5479;52.046;6.314;2024-02-23T02:46:24;4.43;;;1.53;;
10851;SDS011;5479;52.046;6.314;2024-02-23T02:48:52;6.40;;;1.90;;
10851;SDS011;5479;52.046;6.314;2024-02-23T02:51:19;5.30;;;1.90;;
10851;SDS011;5479;52.046;6.314;2024-02-23T02:53:47;3.53;;;1.50;;
10851;SDS011;5479;52.046;6.314;2024-02-23T02:56:15;6.37;;;1.63;;
10851;SDS011;5479;52.046;6.314;2024-02-23T02:58:44;5.33;;;1.87;;
10851;SDS011;5479;52.046;6.314;2024-02-23T03:01:12;3.67;;;1.70;;
10851;SDS011;5479;52.046;6.314;2024-02-23T03:03:40;5.87;;;1.70;;
10851;SDS011;5479;52.046;6.314;2024-02-23T03:06:07;4.70;;;1.50;;
10851;SDS011;5479;52.046;6.314;2024-02-23T03:08:36;5.23;;;1.70;;
10851;SDS011;5479;52.046;6.314;2024-02-23T03:11:04;5.33;;;1.70;;
10851;SDS011;5479;52.046;6.314;2024-02-23T03:13:32;5.97;;;1.80;;
10851;SDS011;5479;52.046;6.314;2024-02-23T03:16:01;4.23;;;1.60;;
10851;SDS011;5479;52.046;6.314;2024-02-23T03:18:31;3.53;;;1.20;;
10851;SDS011;5479;52.046;6.314;2024-02-23T03:20:57;5.57;;;1.70;;
10851;SDS011;5479;52.046;6.314;2024-02-23T03:23:25;4.13;;;1.50;;
10851;SDS011;5479;52.046;6.314;2024-02-23T03:25:53;4.00;;;1.60;;
10851;SDS011;5479;52.046;6.314;2024-02-23T03:28:20;4.53;;;1.60;;
10851;SDS011;5479;52.046;6.314;2024-02-23T03:30:48;3.63;;;1.70;;
10851;SDS011;5479;52.046;6.314;2024-02-23T03:33:18;4.10;;;1.33;;
10851;SDS011;5479;52.046;6.314;2024-02-23T03:35:45;4.70;;;1.57;;
10851;SDS011;5479;52.046;6.314;2024-02-23T03:38:15;4.70;;;1.23;;
10851;SDS011;5479;52.046;6.314;2024-02-23T03:40:43;3.73;;;1.30;;
10851;SDS011;5479;52.046;6.314;2024-02-23T03:43:11;3.57;;;1.40;;
10851;SDS011;5479;52.046;6.314;2024-02-23T03:45:39;5.77;;;1.47;;
10851;SDS011;5479;52.046;6.314;2024-02-23T03:48:07;2.77;;;1.00;;
10851;SDS011;5479;52.046;6.314;2024-02-23T03:50:37;2.57;;;1.23;;
10851;SDS011;5479;52.046;6.314;2024-02-23T03:53:05;2.57;;;0.90;;
10851;SDS011;5479;52.046;6.314;2024-02-23T03:55:32;3.40;;;1.20;;
10851;SDS011;5479;52.046;6.314;2024-02-23T03:58:00;5.10;;;1.43;;
10851;SDS011;5479;52.046;6.314;2024-02-23T04:00:28;3.27;;;1.30;;
10851;SDS011;5479;52.046;6.314;2024-02-23T04:02:56;3.60;;;1.50;;
10851;SDS011;5479;52.046;6.314;2024-02-23T04:05:24;3.70;;;1.40;;
10851;SDS011;5479;52.046;6.314;2024-02-23T04:07:53;5.50;;;1.63;;
10851;SDS011;5479;52.046;6.314;2024-02-23T04:10:21;3.83;;;1.20;;
10851;SDS011;5479;52.046;6.314;2024-02-23T04:12:49;5.83;;;1.70;;
10851;SDS011;5479;52.046;6.314;2024-02-23T04:15:17;4.27;;;1.90;;
10851;SDS011;5479;52.046;6.314;2024-02-23T04:17:45;6.53;;;1.40;;
10851;SDS011;5479;52.046;6.314;2024-02-23T04:20:13;4.90;;;1.30;;
10851;SDS011;5479;52.046;6.314;2024-02-23T04:22:41;7.07;;;1.50;;
10851;SDS011;5479;52.046;6.314;2024-02-23T04:25:10;2.83;;;1.30;;
10851;SDS011;5479;52.046;6.314;2024-02-23T04:27:38;5.70;;;1.70;;
10851;SDS011;5479;52.046;6.314;2024-02-23T04:30:06;4.53;;;1.30;;
10851;SDS011;5479;52.046;6.314;2024-02-23T04:32:34;3.07;;;1.50;;
10851;SDS011;5479;52.046;6.314;2024-02-23T04:35:02;3.23;;;1.20;;
10851;SDS011;5479;52.046;6.314;2024-02-23T04:37:29;6.37;;;1.57;;
10851;SDS011;5479;52.046;6.314;2024-02-23T04:39:57;4.50;;;1.70;;
10851;SDS011;5479;52.046;6.314;2024-02-23T04:42:26;4.70;;;1.50;;
10851;SDS011;5479;52.046;6.314;2024-02-23T04:44:54;5.07;;;1.63;;
10851;SDS011;5479;52.046;6.314;2024-02-23T04:47:22;5.00;;;1.50;;
10851;SDS011;5479;52.046;6.314;2024-02-23T04:49:49;8.07;;;1.80;;
10851;SDS011;5479;52.046;6.314;2024-02-23T04:52:17;6.67;;;2.23;;
10851;SDS011;5479;52.046;6.314;2024-02-23T04:54:45;7.03;;;1.60;;
10851;SDS011;5479;52.046;6.314;2024-02-23T04:57:13;4.43;;;1.80;;
10851;SDS011;5479;52.046;6.314;2024-02-23T04:59:42;4.83;;;1.90;;
10851;SDS011;5479;52.046;6.314;2024-02-23T05:02:09;4.17;;;2.00;;
10851;SDS011;5479;52.046;6.314;2024-02-23T05:04:37;5.97;;;1.80;;
10851;SDS011;5479;52.046;6.314;2024-02-23T05:07:05;4.63;;;1.77;;
10851;SDS011;5479;52.046;6.314;2024-02-23T05:09:32;5.00;;;1.60;;
10851;SDS011;5479;52.046;6.314;2024-02-23T05:12:01;4.87;;;1.60;;
10851;SDS011;5479;52.046;6.314;2024-02-23T05:14:30;4.10;;;1.60;;
10851;SDS011;5479;52.046;6.314;2024-02-23T05:16:59;4.30;;;1.50;;
10851;SDS011;5479;52.046;6.314;2024-02-23T05:19:26;4.07;;;1.60;;
10851;SDS011;5479;52.046;6.314;2024-02-23T05:21:55;4.97;;;1.53;;
10851;SDS011;5479;52.046;6.314;2024-02-23T05:24:22;5.57;;;1.60;;
10851;SDS011;5479;52.046;6.314;2024-02-23T05:26:50;4.63;;;1.73;;
10851;SDS011;5479;52.046;6.314;2024-02-23T05:29:17;5.53;;;1.70;;
10851;SDS011;5479;52.046;6.314;2024-02-23T05:31:48;4.67;;;2.17;;
10851;SDS011;5479;52.046;6.314;2024-02-23T05:34:18;4.87;;;1.80;;
10851;SDS011;5479;52.046;6.314;2024-02-23T05:36:46;8.30;;;2.13;;
10851;SDS011;5479;52.046;6.314;2024-02-23T05:39:14;7.13;;;2.73;;
10851;SDS011;5479;52.046;6.314;2024-02-23T05:41:42;6.17;;;2.10;;
10851;SDS011;5479;52.046;6.314;2024-02-23T05:44:10;5.83;;;2.20;;
10851;SDS011;5479;52.046;6.314;2024-02-23T05:46:39;4.93;;;2.10;;
10851;SDS011;5479;52.046;6.314;2024-02-23T05:49:07;5.60;;;2.40;;
10851;SDS011;5479;52.046;6.314;2024-02-23T05:51:37;6.67;;;2.13;;
10851;SDS011;5479;52.046;6.314;2024-02-23T05:54:04;5.37;;;2.00;;
10851;SDS011;5479;52.046;6.314;2024-02-23T05:56:32;5.93;;;2.07;;
10851;SDS011;5479;52.046;6.314;2024-02-23T05:58:59;6.40;;;1.90;;
10851;SDS011;5479;52.046;6.314;2024-02-23T06:01:26;6.63;;;1.90;;
10851;SDS011;5479;52.046;6.314;2024-02-23T06:03:54;4.57;;;2.17;;
10851;SDS011;5479;52.046;6.314;2024-02-23T06:06:22;6.90;;;2.03;;
10851;SDS011;5479;52.046;6.314;2024-02-23T06:08:51;4.40;;;2.03;;
10851;SDS011;5479;52.046;6.314;2024-02-23T06:11:19;5.27;;;1.67;;
10851;SDS011;5479;52.046;6.314;2024-02-23T06:13:47;3.53;;;1.60;;
10851;SDS011;5479;52.046;6.314;2024-02-23T06:16:14;6.57;;;2.00;;
10851;SDS011;5479;52.046;6.314;2024-02-23T06:18:42;4.50;;;1.50;;
10851;SDS011;5479;52.046;6.314;2024-02-23T06:21:11;7.53;;;1.40;;
10851;SDS011;5479;52.046;6.314;2024-02-23T06:23:39;6.40;;;1.83;;
10851;SDS011;5479;52.046;6.314;2024-02-23T06:26:08;6.30;;;2.37;;
10851;SDS011;5479;52.046;6.314;2024-02-23T06:28:36;6.20;;;1.50;;
10851;SDS011;5479;52.046;6.314;2024-02-23T06:31:05;5.10;;;1.53;;
10851;SDS011;5479;52.046;6.314;2024-02-23T06:33:33;4.73;;;1.60;;
10851;SDS011;5479;52.046;6.314;2024-02-23T06:36:02;4.43;;;1.60;;
10851;SDS011;5479;52.046;6.314;2024-02-23T06:38:29;6.43;;;1.60;;
10851;SDS011;5479;52.046;6.314;2024-02-23T06:40:57;5.30;;;1.20;;
10851;SDS011;5479;52.046;6.314;2024-02-23T06:43:26;4.60;;;1.70;;
10851;SDS011;5479;52.046;6.314;2024-02-23T06:45:54;4.63;;;1.80;;
10851;SDS011;5479;52.046;6.314;2024-02-23T06:48:23;5.77;;;1.43;;
10851;SDS011;5479;52.046;6.314;2024-02-23T06:50:51;4.83;;;1.40;;
10851;SDS011;5479;52.046;6.314;2024-02-23T06:53:18;6.80;;;1.50;;
10851;SDS011;5479;52.046;6.314;2024-02-23T06:55:46;5.93;;;1.57;;
10851;SDS011;5479;52.046;6.314;2024-02-23T06:58:14;5.00;;;1.30;;
10851;SDS011;5479;52.046;6.314;2024-02-23T07:00:44;3.70;;;1.50;;
10851;SDS011;5479;52.046;6.314;2024-02-23T07:03:13;2.83;;;1.30;;
10851;SDS011;5479;52.046;6.314;2024-02-23T07:05:40;5.50;;;1.60;;
10851;SDS011;5479;52.046;6.314;2024-02-23T07:08:08;2.87;;;1.13;;
10851;SDS011;5479;52.046;6.314;2024-02-23T07:10:36;4.23;;;1.23;;
10851;SDS011;5479;52.046;6.314;2024-02-23T07:13:04;3.73;;;1.10;;
10851;SDS011;5479;52.046;6.314;2024-02-23T07:15:33;5.37;;;1.73;;
10851;SDS011;5479;52.046;6.314;2024-02-23T07:18:03;4.53;;;1.60;;
10851;SDS011;5479;52.046;6.314;2024-02-23T07:20:31;5.43;;;1.77;;
10851;SDS011;5479;52.046;6.314;2024-02-23T07:23:00;4.37;;;1.37;;
10851;SDS011;5479;52.046;6.314;2024-02-23T07:25:27;6.37;;;1.57;;
10851;SDS011;5479;52.046;6.314;2024-02-23T07:27:55;5.00;;;1.63;;
10851;SDS011;5479;52.046;6.314;2024-02-23T07:30:23;7.30;;;1.60;;
10851;SDS011;5479;52.046;6.314;2024-02-23T07:32:50;5.50;;;1.67;;
10851;SDS011;5479;52.046;6.314;2024-02-23T07:35:19;2.97;;;1.60;;
10851;SDS011;5479;52.046;6.314;2024-02-23T07:37:47;7.80;;;1.80;;
10851;SDS011;5479;52.046;6.314;2024-02-23T07:40:16;5.93;;;1.93;;
10851;SDS011;5479;52.046;6.314;2024-02-23T07:42:44;7.40;;;1.80;;
10851;SDS011;5479;52.046;6.314;2024-02-23T07:45:12;6.37;;;1.90;;
10851;SDS011;5479;52.046;6.314;2024-02-23T07:47:40;4.63;;;1.43;;
10851;SDS011;5479;52.046;6.314;2024-02-23T07:50:08;4.53;;;1.43;;
10851;SDS011;5479;52.046;6.314;2024-02-23T07:52:37;5.87;;;1.70;;
10851;SDS011;5479;52.046;6.314;2024-02-23T07:55:05;6.17;;;1.77;;
10851;SDS011;5479;52.046;6.314;2024-02-23T07:57:33;4.67;;;1.50;;
10851;SDS011;5479;52.046;6.314;2024-02-23T08:00:02;4.60;;;1.57;;
10851;SDS011;5479;52.046;6.314;2024-02-23T08:02:30;4.73;;;1.70;;
10851;SDS011;5479;52.046;6.314;2024-02-23T08:04:58;4.83;;;1.77;;
10851;SDS011;5479;52.046;6.314;2024-02-23T08:07:25;4.73;;;1.63;;
10851;SDS011;5479;52.046;6.314;2024-02-23T08:09:56;6.03;;;1.83;;
10851;SDS011;5479;52.046;6.314;2024-02-23T08:12:23;5.77;;;1.63;;
10851;SDS011;5479;52.046;6.314;2024-02-23T08:14:51;4.97;;;1.70;;
10851;SDS011;5479;52.046;6.314;2024-02-23T08:17:20;4.50;;;1.60;;
10851;SDS011;5479;52.046;6.314;2024-02-23T08:19:48;4.17;;;1.60;;
10851;SDS011;5479;52.046;6.314;2024-02-23T08:22:16;4.40;;;1.50;;
10851;SDS011;5479;52.046;6.314;2024-02-23T08:24:44;4.53;;;1.40;;
10851;SDS011;5479;52.046;6.314;2024-02-23T08:27:13;4.13;;;1.40;;
10851;SDS011;5479;52.046;6.314;2024-02-23T08:29:40;3.43;;;1.30;;
10851;SDS011;5479;52.046;6.314;2024-02-23T08:32:08;4.57;;;1.50;;
10851;SDS011;5479;52.046;6.314;2024-02-23T08:34:36;5.93;;;1.60;;
10851;SDS011;5479;52.046;6.314;2024-02-23T08:37:04;7.10;;;1.60;;
10851;SDS011;5479;52.046;6.314;2024-02-23T08:39:32;3.60;;;1.47;;
10851;SDS011;5479;52.046;6.314;2024-02-23T08:42:00;5.23;;;1.23;;
10851;SDS011;5479;52.046;6.314;2024-02-23T08:44:29;5.27;;;1.40;;
10851;SDS011;5479;52.046;6.314;2024-02-23T08:46:57;4.80;;;1.50;;
10851;SDS011;5479;52.046;6.314;2024-02-23T08:49:24;6.00;;;1.70;;
10851;SDS011;5479;52.046;6.314;2024-02-23T08:51:52;9.20;;;1.93;;
10851;SDS011;5479;52.046;6.314;2024-02-23T08:54:20;7.70;;;1.73;;
10851;SDS011;5479;52.046;6.314;2024-02-23T08:56:47;6.87;;;1.60;;
10851;SDS011;5479;52.046;6.314;2024-02-23T08:59:15;5.97;;;1.60;;
10851;SDS011;5479;52.046;6.314;2024-02-23T09:01:44;4.57;;;1.20;;
10851;SDS011;5479;52.046;6.314;2024-02-23T09:04:13;4.73;;;1.20;;
10851;SDS011;5479;52.046;6.314;2024-02-23T09:06:41;5.47;;;1.60;;
10851;SDS011;5479;52.046;6.314;2024-02-23T09:09:08;4.17;;;1.40;;
10851;SDS011;5479;52.046;6.314;2024-02-23T09:11:36;5.63;;;1.27;;
10851;SDS011;5479;52.046;6.314;2024-02-23T09:14:04;6.80;;;1.70;;
10851;SDS011;5479;52.046;6.314;2024-02-23T09:16:32;5.00;;;1.83;;
10851;SDS011;5479;52.046;6.314;2024-02-23T09:19:01;6.83;;;2.43;;
10851;SDS011;5479;52.046;6.314;2024-02-23T09:21:29;5.17;;;1.50;;
10851;SDS011;5479;52.046;6.314;2024-02-23T09:23:57;4.23;;;1.00;;
10851;SDS011;5479;52.046;6.314;2024-02-23T09:26:25;4.23;;;1.33;;
10851;SDS011;5479;52.046;6.314;2024-02-23T09:28:53;4.00;;;1.20;;
10851;SDS011;5479;52.046;6.314;2024-02-23T09:31:20;4.07;;;1.43;;
10851;SDS011;5479;52.046;6.314;2024-02-23T09:33:48;3.83;;;1.30;;
10851;SDS011;5479;52.046;6.314;2024-02-23T09:36:19;7.20;;;1.60;;
10851;SDS011;5479;52.046;6.314;2024-02-23T09:38:47;3.93;;;1.40;;
10851;SDS011;5479;52.046;6.314;2024-02-23T09:41:17;4.00;;;1.20;;
10851;SDS011;5479;52.046;6.314;2024-02-23T09:43:47;4.23;;;1.77;;
10851;SDS011;5479;52.046;6.314;2024-02-23T09:46:15;4.63;;;1.30;;
10851;SDS011;5479;52.046;6.314;2024-02-23T09:48:43;4.97;;;1.47;;
10851;SDS011;5479;52.046;6.314;2024-02-23T09:51:11;4.37;;;1.50;;
10851;SDS011;5479;52.046;6.314;2024-02-23T09:53:41;5.10;;;1.40;;
10851;SDS011;5479;52.046;6.314;2024-02-23T09:56:08;5.60;;;1.60;;
10851;SDS011;5479;52.046;6.314;2024-02-23T09:58:37;3.00;;;1.20;;
10851;SDS011;5479;52.046;6.314;2024-02-23T10:01:06;5.83;;;1.70;;
10851;SDS011;5479;52.046;6.314;2024-02-23T10:03:38;6.47;;;1.67;;
10851;SDS011;5479;52.046;6.314;2024-02-23T10:06:07;4.93;;;1.33;;
10851;SDS011;5479;52.046;6.314;2024-02-23T10:08:34;6.23;;;1.53;;
10851;SDS011;5479;52.046;6.314;2024-02-23T10:11:04;4.70;;;1.50;;
10851;SDS011;5479;52.046;6.314;2024-02-23T10:13:32;5.53;;;1.63;;
10851;SDS011;5479;52.046;6.314;2024-02-23T10:15:59;4.30;;;1.47;;
10851;SDS011;5479;52.046;6.314;2024-02-23T10:18:27;7.03;;;1.83;;
10851;SDS011;5479;52.046;6.314;2024-02-23T10:20:55;6.97;;;1.50;;
10851;SDS011;5479;52.046;6.314;2024-02-23T10:23:24;4.10;;;1.17;;
10851;SDS011;5479;52.046;6.314;2024-02-23T10:25:51;4.30;;;1.40;;
10851;SDS011;5479;52.046;6.314;2024-02-23T10:28:20;3.13;;;1.50;;
10851;SDS011;5479;52.046;6.314;2024-02-23T10:30:50;2.63;;;1.13;;
10851;SDS011;5479;52.046;6.314;2024-02-23T10:33:18;4.73;;;1.50;;
10851;SDS011;5479;52.046;6.314;2024-02-23T10:35:48;6.20;;;1.60;;
10851;SDS011;5479;52.046;6.314;2024-02-23T10:38:20;4.30;;;1.67;;
10851;SDS011;5479;52.046;6.314;2024-02-23T10:40:48;8.03;;;2.40;;
10851;SDS011;5479;52.046;6.314;2024-02-23T10:43:19;7.57;;;2.10;;
10851;SDS011;5479;52.046;6.314;2024-02-23T10:45:48;4.23;;;2.03;;
10851;SDS011;5479;52.046;6.314;2024-02-23T10:48:16;9.30;;;5.60;;
10851;SDS011;5479;52.046;6.314;2024-02-23T10:50:44;11.23;;;5.43;;
10851;SDS011;5479;52.046;6.314;2024-02-23T10:53:14;9.70;;;4.83;;
10851;SDS011;5479;52.046;6.314;2024-02-23T10:55:44;5.97;;;2.70;;
10851;SDS011;5479;52.046;6.314;2024-02-23T10:58:12;5.70;;;2.00;;
10851;SDS011;5479;52.046;6.314;2024-02-23T11:00:42;5.03;;;1.50;;
10851;SDS011;5479;52.046;6.314;2024-02-23T11:03:13;5.17;;;1.17;;
10851;SDS011;5479;52.046;6.314;2024-02-23T11:05:41;5.30;;;1.60;;
10851;SDS011;5479;52.046;6.314;2024-02-23T11:08:09;5.33;;;1.50;;
10851;SDS011;5479;52.046;6.314;2024-02-23T11:10:48;2.83;;;1.40;;
10851;SDS011;5479;52.046;6.314;2024-02-23T11:13:16;6.63;;;1.40;;
10851;SDS011;5479;52.046;6.314;2024-02-23T11:15:44;3.90;;;1.47;;
10851;SDS011;5479;52.046;6.314;2024-02-23T11:18:22;4.43;;;1.60;;
10851;SDS011;5479;52.046;6.314;2024-02-23T11:20:54;4.13;;;1.40;;
10851;SDS011;5479;52.046;6.314;2024-02-23T11:23:21;3.97;;;1.40;;
10851;SDS011;5479;52.046;6.314;2024-02-23T11:25:58;2.03;;;1.10;;
10851;SDS011;5479;52.046;6.314;2024-02-23T11:28:26;2.17;;;0.90;;
10851;SDS011;5479;52.046;6.314;2024-02-23T11:30:54;3.03;;;1.10;;
10851;SDS011;5479;52.046;6.314;2024-02-23T11:33:29;3.43;;;1.10;;
10851;SDS011;5479;52.046;6.314;2024-02-23T11:36:06;1.73;;;1.07;;
10851;SDS011;5479;52.046;6.314;2024-02-23T11:38:34;3.37;;;1.10;;
10851;SDS011;5479;52.046;6.314;2024-02-23T11:41:02;3.30;;;1.30;;
10851;SDS011;5479;52.046;6.314;2024-02-23T11:43:30;3.73;;;1.20;;
10851;SDS011;5479;52.046;6.314;2024-02-23T11:46:02;4.27;;;1.33;;
10851;SDS011;5479;52.046;6.314;2024-02-23T11:48:31;3.30;;;1.13;;
10851;SDS011;5479;52.046;6.314;2024-02-23T11:50:59;3.93;;;1.10;;
10851;SDS011;5479;52.046;6.314;2024-02-23T11:53:26;3.67;;;1.10;;
10851;SDS011;5479;52.046;6.314;2024-02-23T11:55:58;4.57;;;1.33;;
10851;SDS011;5479;52.046;6.314;2024-02-23T11:58:26;3.07;;;1.30;;
10851;SDS011;5479;52.046;6.314;2024-02-23T12:00:54;4.77;;;1.40;;
10851;SDS011;5479;52.046;6.314;2024-02-23T12:03:22;4.33;;;1.50;;
10851;SDS011;5479;52.046;6.314;2024-02-23T12:05:52;3.10;;;1.30;;
10851;SDS011;5479;52.046;6.314;2024-02-23T12:08:20;3.43;;;1.30;;
10851;SDS011;5479;52.046;6.314;2024-02-23T12:10:48;4.23;;;1.60;;
10851;SDS011;5479;52.046;6.314;2024-02-23T12:13:16;3.67;;;1.23;;
10851;SDS011;5479;52.046;6.314;2024-02-23T12:15:44;3.27;;;1.37;;
10851;SDS011;5479;52.046;6.314;2024-02-23T12:18:11;2.20;;;1.20;;
10851;SDS011;5479;52.046;6.314;2024-02-23T12:20:39;5.40;;;1.77;;
10851;SDS011;5479;52.046;6.314;2024-02-23T12:23:08;2.83;;;1.20;;
10851;SDS011;5479;52.046;6.314;2024-02-23T12:25:36;3.77;;;1.37;;
10851;SDS011;5479;52.046;6.314;2024-02-23T12:28:04;4.00;;;1.33;;
10851;SDS011;5479;52.046;6.314;2024-02-23T12:30:32;3.20;;;1.33;;
10851;SDS011;5479;52.046;6.314;2024-02-23T12:33:03;4.17;;;1.33;;
10851;SDS011;5479;52.046;6.314;2024-02-23T12:35:32;2.53;;;1.07;;
10851;SDS011;5479;52.046;6.314;2024-02-23T12:38:01;4.17;;;1.30;;
10851;SDS011;5479;52.046;6.314;2024-02-23T12:40:31;3.97;;;1.53;;
10851;SDS011;5479;52.046;6.314;2024-02-23T12:43:00;3.43;;;1.33;;
10851;SDS011;5479;52.046;6.314;2024-02-23T12:45:27;3.87;;;1.63;;
10851;SDS011;5479;52.046;6.314;2024-02-23T12:47:55;3.50;;;1.33;;
10851;SDS011;5479;52.046;6.314;2024-02-23T12:50:23;4.60;;;1.30;;
10851;SDS011;5479;52.046;6.314;2024-02-23T12:52:51;3.83;;;1.20;;
10851;SDS011;5479;52.046;6.314;2024-02-23T12:55:18;4.73;;;1.80;;
10851;SDS011;5479;52.046;6.314;2024-02-23T12:57:47;2.70;;;1.30;;
10851;SDS011;5479;52.046;6.314;2024-02-23T13:00:15;3.53;;;1.30;;
10851;SDS011;5479;52.046;6.314;2024-02-23T13:02:43;5.37;;;1.83;;
10851;SDS011;5479;52.046;6.314;2024-02-23T13:05:10;1.57;;;0.93;;
10851;SDS011;5479;52.046;6.314;2024-02-23T13:07:37;5.17;;;1.47;;
10851;SDS011;5479;52.046;6.314;2024-02-23T13:10:08;4.43;;;1.53;;
10851;SDS011;5479;52.046;6.314;2024-02-23T13:12:36;5.13;;;1.60;;
10851;SDS011;5479;52.046;6.314;2024-02-23T13:15:06;3.77;;;1.33;;
10851;SDS011;5479;52.046;6.314;2024-02-23T13:17:34;4.90;;;1.43;;
10851;SDS011;5479;52.046;6.314;2024-02-23T13:20:02;7.90;;;1.50;;
10851;SDS011;5479;52.046;6.314;2024-02-23T13:22:30;7.13;;;1.40;;
10851;SDS011;5479;52.046;6.314;2024-02-23T13:24:57;5.53;;;1.53;;
10851;SDS011;5479;52.046;6.314;2024-02-23T13:27:28;4.77;;;1.60;;
10851;SDS011;5479;52.046;6.314;2024-02-23T13:29:56;4.27;;;1.23;;
10851;SDS011;5479;52.046;6.314;2024-02-23T13:32:25;7.63;;;2.33;;
10851;SDS011;5479;52.046;6.314;2024-02-23T13:34:53;5.73;;;1.73;;
10851;SDS011;5479;52.046;6.314;2024-02-23T13:37:21;3.10;;;1.57;;
10851;SDS011;5479;52.046;6.314;2024-02-23T13:39:48;4.40;;;1.63;;
10851;SDS011;5479;52.046;6.314;2024-02-23T13:42:18;2.87;;;1.27;;
10851;SDS011;5479;52.046;6.314;2024-02-23T13:44:47;4.63;;;1.60;;
10851;SDS011;5479;52.046;6.314;2024-02-23T13:47:14;5.47;;;1.77;;
10851;SDS011;5479;52.046;6.314;2024-02-23T13:49:44;5.10;;;1.53;;
10851;SDS011;5479;52.046;6.314;2024-02-23T13:52:12;2.70;;;1.57;;
10851;SDS011;5479;52.046;6.314;2024-02-23T13:54:39;4.00;;;1.50;;
10851;SDS011;5479;52.046;6.314;2024-02-23T13:57:07;4.03;;;1.80;;
10851;SDS011;5479;52.046;6.314;2024-02-23T13:59:35;6.00;;;1.60;;
10851;SDS011;5479;52.046;6.314;2024-02-23T14:02:02;3.70;;;1.60;;
10851;SDS011;5479;52.046;6.314;2024-02-23T14:04:30;4.30;;;1.63;;
10851;SDS011;5479;52.046;6.314;2024-02-23T14:06:59;4.23;;;1.40;;
10851;SDS011;5479;52.046;6.314;2024-02-23T14:09:27;4.87;;;1.73;;
10851;SDS011;5479;52.046;6.314;2024-02-23T14:11:54;3.77;;;1.50;;
10851;SDS011;5479;52.046;6.314;2024-02-23T14:14:22;3.30;;;1.57;;
10851;SDS011;5479;52.046;6.314;2024-02-23T14:16:50;4.60;;;1.43;;
10851;SDS011;5479;52.046;6.314;2024-02-23T14:19:18;4.57;;;1.47;;
10851;SDS011;5479;52.046;6.314;2024-02-23T14:21:47;3.90;;;1.60;;
10851;SDS011;5479;52.046;6.314;2024-02-23T14:24:16;4.43;;;1.70;;
10851;SDS011;5479;52.046;6.314;2024-02-23T14:26:44;6.90;;;1.90;;
10851;SDS011;5479;52.046;6.314;2024-02-23T14:29:11;3.93;;;1.60;;
10851;SDS011;5479;52.046;6.314;2024-02-23T14:31:39;5.00;;;2.00;;
10851;SDS011;5479;52.046;6.314;2024-02-23T14:34:07;4.60;;;2.10;;
10851;SDS011;5479;52.046;6.314;2024-02-23T14:36:35;5.93;;;1.87;;
10851;SDS011;5479;52.046;6.314;2024-02-23T14:39:03;4.93;;;2.10;;
10851;SDS011;5479;52.046;6.314;2024-02-23T14:41:34;4.03;;;1.80;;
10851;SDS011;5479;52.046;6.314;2024-02-23T14:44:02;4.93;;;2.10;;
10851;SDS011;5479;52.046;6.314;2024-02-23T14:46:30;4.27;;;1.90;;
10851;SDS011;5479;52.046;6.314;2024-02-23T14:48:58;5.37;;;2.27;;
10851;SDS011;5479;52.046;6.314;2024-02-23T14:51:28;6.70;;;2.70;;
10851;SDS011;5479;52.046;6.314;2024-02-23T14:53:55;6.23;;;2.10;;
10851;SDS011;5479;52.046;6.314;2024-02-23T14:56:23;5.87;;;3.00;;
10851;SDS011;5479;52.046;6.314;2024-02-23T14:58:52;3.20;;;1.63;;
10851;SDS011;5479;52.046;6.314;2024-02-23T15:01:20;6.27;;;1.97;;
10851;SDS011;5479;52.046;6.314;2024-02-23T15:03:47;7.63;;;2.93;;
10851;SDS011;5479;52.046;6.314;2024-02-23T15:06:15;5.93;;;2.73;;